M I D A S
Marine Information and Data Acquisition System
Tripno 295 of the Zeeleeuw from 2002-07-09 03:19:21 to 2002-07-09 13:30:00
Back to CruiseResearch ActivitiesStationsMapUnderway DataData graphs

EquipmentUnitsComment
TimeDGPSUTC
LatitudeDGPSDM.mWGS84
LongitudeDGPSDM.mWGS84
HeadingGyrodeg 
SOGDGPSknotsSpeed over ground
COGDGPSdegCourse over ground
DepthEcho soundermeters200 kHz
Missing or incorrect values are displayed as -999
Navigation data collected by the RV Zeeleeuw from 2002-07-09 03:19:21 to 2002-07-09 13:30:00
                                                                                    Next 1000 lines
Time Latitude Longitude Heading SOG COG Depth
2002-07-09 03:19:29 51°14.309 2°55.176 307.5 8.5 305.1 10.1
2002-07-09 03:19:34 51°14.316 2°55.161 308.3 8.6 304.9 10
2002-07-09 03:19:39 51°14.323 2°55.145 309.7 8.8 306 10.2
2002-07-09 03:19:43 51°14.329 2°55.132 310.2 8.9 306.5 9.9
2002-07-09 03:19:49 51°14.339 2°55.112 310.3 9.1 306.9 9.8
2002-07-09 03:19:54 51°14.346 2°55.096 310.5 9.3 307 10.1
2002-07-09 03:19:59 51°14.355 2°55.078 310.7 9.7 307.5 10.5
2002-07-09 03:20:04 51°14.363 2°55.061 310.7 9.9 307.8 10.2
2002-07-09 03:20:09 51°14.372 2°55.043 311.2 10.2 308 10
2002-07-09 03:20:14 51°14.381 2°55.025 311.3 10.3 308.1 10.1
2002-07-09 03:20:19 51°14.39 2°55.006 311 10.5 307.5 10
2002-07-09 03:20:23 51°14.397 2°54.991 311 10.7 306.8 10
2002-07-09 03:20:29 51°14.408 2°54.967 311.7 10.9 306.3 10
2002-07-09 03:20:34 51°14.417 2°54.948 313.5 11.1 306.9 9.9
2002-07-09 03:20:39 51°14.428 2°54.929 316.7 11.3 308.3 9.8
2002-07-09 03:20:44 51°14.439 2°54.911 322 11.4 312.5 9.8
2002-07-09 03:20:49 51°14.452 2°54.896 328 11.4 319.3 5.1
2002-07-09 03:20:55 51°14.468 2°54.881 335 11.4 323.8 9.7
2002-07-09 03:21:00 51°14.482 2°54.869 338.7 11.3 330 -999
2002-07-09 03:21:05 51°14.496 2°54.858 342.3 11.4 333.7 -999
2002-07-09 03:21:10 51°14.511 2°54.848 343.3 11.4 335.4 -999
2002-07-09 03:21:14 51°14.523 2°54.839 343.7 11.5 335.9 9.2
2002-07-09 03:21:19 51°14.538 2°54.829 344.7 11.6 336.5 9.6
2002-07-09 03:21:24 51°14.553 2°54.82 345 11.6 337.5 9.6
2002-07-09 03:21:29 51°14.568 2°54.81 345.8 11.7 338 9.5
2002-07-09 03:21:34 51°14.584 2°54.801 346.2 11.8 338.5 9.5
2002-07-09 03:21:39 51°14.599 2°54.79 344 11.8 337.6 9.4
2002-07-09 03:21:44 51°14.614 2°54.779 342.5 11.9 336.2 9.4
2002-07-09 03:21:49 51°14.629 2°54.767 342.3 12.1 335.5 9.3
2002-07-09 03:21:54 51°14.645 2°54.756 342.5 12.3 335.2 9.4
2002-07-09 03:21:59 51°14.661 2°54.744 341.8 12.4 335 9.3
2002-07-09 03:22:04 51°14.676 2°54.731 340 12.6 334 9.3
2002-07-09 03:22:09 51°14.692 2°54.718 338.8 12.8 332.4 9.3
2002-07-09 03:22:15 51°14.711 2°54.701 338.3 13 331.8 9.3
2002-07-09 03:22:19 51°14.724 2°54.69 338 13.1 331.4 9.5
2002-07-09 03:22:24 51°14.74 2°54.676 338 13.2 331.3 9.3
2002-07-09 03:22:29 51°14.756 2°54.662 338 13.2 331.5 9
2002-07-09 03:22:34 51°14.772 2°54.648 338.3 13.2 331.7 9.1
2002-07-09 03:22:39 51°14.789 2°54.634 338 13.2 331.9 9.2
2002-07-09 03:22:44 51°14.805 2°54.621 338.3 13.3 332 9.2
2002-07-09 03:22:49 51°14.821 2°54.607 338.5 13.3 332.1 9.1
2002-07-09 03:22:54 51°14.838 2°54.594 338.7 13.3 332.2 9.2
2002-07-09 03:22:59 51°14.854 2°54.58 339 13.3 332.5 9.2
2002-07-09 03:23:04 51°14.87 2°54.567 338.7 13.3 332.6 9.1
2002-07-09 03:23:09 51°14.886 2°54.553 338.7 13.3 332.5 9
2002-07-09 03:23:14 51°14.903 2°54.54 338.8 13.3 332.5 8.9
2002-07-09 03:23:19 51°14.919 2°54.526 338.7 13.3 332.6 8.8
2002-07-09 03:23:25 51°14.94 2°54.51 338.7 13.3 332.8 8.8
2002-07-09 03:23:29 51°14.953 2°54.499 338.8 13.3 332.7 8.5
2002-07-09 03:23:34 51°14.97 2°54.486 339 13.3 332.9 8.4
2002-07-09 03:23:39 51°14.986 2°54.473 339.2 13.2 333.1 8.4
2002-07-09 03:23:44 51°15.002 2°54.46 339.3 13.2 333.3 8.3
2002-07-09 03:23:49 51°15.018 2°54.447 339.5 13.2 333.6 8.1
2002-07-09 03:23:54 51°15.035 2°54.434 339.8 13.2 333.8 8.2
2002-07-09 03:23:59 51°15.051 2°54.422 339.8 13.2 333.9 8.1
2002-07-09 03:24:03 51°15.064 2°54.411 339.3 13.2 333.7 8.2
2002-07-09 03:24:09 51°15.084 2°54.395 339.3 13.2 333.4 8.1
2002-07-09 03:24:14 51°15.1 2°54.381 338.3 13.3 332.9 8.3
2002-07-09 03:24:19 51°15.116 2°54.368 337.8 13.3 332.4 8.3
2002-07-09 03:24:24 51°15.133 2°54.353 337.2 13.4 331.7 8.4
2002-07-09 03:24:29 51°15.149 2°54.339 336.8 13.5 331.2 8.4
2002-07-09 03:24:34 51°15.165 2°54.324 336.5 13.6 331 8.5
2002-07-09 03:24:39 51°15.182 2°54.309 336.7 13.7 331 8.5
2002-07-09 03:24:45 51°15.202 2°54.292 337 13.7 331.3 8.6
2002-07-09 03:24:49 51°15.216 2°54.281 337.8 13.7 332.1 8.6
2002-07-09 03:24:54 51°15.233 2°54.267 338.8 13.8 332.7 8.6
2002-07-09 03:24:59 51°15.25 2°54.254 339.8 13.8 333.8 8.7
2002-07-09 03:25:04 51°15.268 2°54.241 340.7 13.9 334.5 8.8
2002-07-09 03:25:09 51°15.285 2°54.228 341.2 13.9 335.1 8.7
2002-07-09 03:25:14 51°15.303 2°54.215 341.2 14 335.3 8.9
2002-07-09 03:25:19 51°15.321 2°54.202 341 14 335.1 9
2002-07-09 03:25:24 51°15.338 2°54.188 340.3 14 334.8 9
2002-07-09 03:25:29 51°15.355 2°54.175 340 14.1 334.1 9.1
2002-07-09 03:25:34 51°15.373 2°54.16 339.2 14.1 333.4 9.2
2002-07-09 03:25:39 51°15.39 2°54.146 338.8 14.2 332.8 9.2
2002-07-09 03:25:44 51°15.408 2°54.131 337.8 14.2 332.2 9.3
2002-07-09 03:25:49 51°15.425 2°54.116 337.5 14.2 331.7 9.4
2002-07-09 03:25:54 51°15.442 2°54.101 337.3 14.2 331.4 9.4
2002-07-09 03:25:59 51°15.46 2°54.086 337.7 14.2 331.6 9.5
2002-07-09 03:26:03 51°15.474 2°54.075 338.5 14.2 332 9.6
2002-07-09 03:26:09 51°15.495 2°54.057 338.8 14.3 332.5 9.6
2002-07-09 03:26:14 51°15.513 2°54.043 338.7 14.3 332.6 9.8
2002-07-09 03:26:19 51°15.53 2°54.028 339 14.3 332.9 9.8
2002-07-09 03:26:24 51°15.548 2°54.014 339.3 14.3 333.1 9.9
2002-07-09 03:26:29 51°15.566 2°54 339.7 14.3 333.4 10
2002-07-09 03:26:34 51°15.584 2°53.986 340 14.3 333.7 10
2002-07-09 03:26:39 51°15.602 2°53.972 340.3 14.3 334 10.1
2002-07-09 03:26:44 51°15.62 2°53.958 340.3 14.3 334.2 10.2
2002-07-09 03:26:49 51°15.638 2°53.945 340.2 14.3 334.1 10.3
2002-07-09 03:26:54 51°15.656 2°53.93 339.7 14.3 333.8 10.3
2002-07-09 03:26:59 51°15.673 2°53.916 339.5 14.4 333.4 10.4
2002-07-09 03:27:03 51°15.687 2°53.905 339.3 14.4 333.1 10.5
2002-07-09 03:27:09 51°15.709 2°53.887 338.7 14.4 332.7 10.5
2002-07-09 03:27:15 51°15.73 2°53.869 338.7 14.4 332.6 10.6
2002-07-09 03:27:19 51°15.744 2°53.858 338.8 14.4 332.6 10.7
2002-07-09 03:27:24 51°15.762 2°53.843 338.8 14.4 332.6 10.8
2002-07-09 03:27:29 51°15.78 2°53.829 339.2 14.4 332.9 10.8
2002-07-09 03:27:34 51°15.798 2°53.814 339.2 14.4 333 10.9
2002-07-09 03:27:39 51°15.816 2°53.8 338.8 14.4 333 10.9
2002-07-09 03:27:44 51°15.833 2°53.785 338.5 14.4 332.6 11
2002-07-09 03:27:48 51°15.847 2°53.773 338 14.4 332.2 11
2002-07-09 03:27:54 51°15.868 2°53.755 337.5 14.4 331.8 11.1
2002-07-09 03:27:59 51°15.886 2°53.739 337.5 14.4 331.4 11.1
2002-07-09 03:28:04 51°15.904 2°53.724 337 14.4 331.1 11.2
2002-07-09 03:28:09 51°15.921 2°53.708 336.5 14.4 330.5 11.2
2002-07-09 03:28:14 51°15.938 2°53.691 335.2 14.4 329.7 11.3
2002-07-09 03:28:19 51°15.955 2°53.675 334.7 14.4 328.8 11.3
2002-07-09 03:28:24 51°15.972 2°53.658 334.2 14.5 328.3 11.3
2002-07-09 03:28:29 51°15.989 2°53.64 333.7 14.5 327.8 11.4
2002-07-09 03:28:34 51°16.006 2°53.623 333 14.4 327.5 11.5
2002-07-09 03:28:39 51°16.023 2°53.606 332.7 14.4 327.2 11.5
2002-07-09 03:28:44 51°16.04 2°53.589 333 14.4 327.1 11.5
2002-07-09 03:28:49 51°16.057 2°53.571 333 14.4 327.2 11.5
2002-07-09 03:28:54 51°16.074 2°53.554 333 14.5 327.3 11.6
2002-07-09 03:28:59 51°16.091 2°53.537 333.2 14.4 327.4 11.6
2002-07-09 03:29:04 51°16.107 2°53.52 333.3 14.4 327.5 11.6
2002-07-09 03:29:09 51°16.124 2°53.502 333.3 14.4 327.7 11.7
2002-07-09 03:29:14 51°16.141 2°53.486 333.3 14.4 327.8 11.8
2002-07-09 03:29:19 51°16.158 2°53.469 333.5 14.4 327.8 11.8
2002-07-09 03:29:24 51°16.175 2°53.451 333.5 14.5 327.9 11.8
2002-07-09 03:29:29 51°16.192 2°53.435 333.7 14.5 328.1 11.9
2002-07-09 03:29:34 51°16.21 2°53.418 333.8 14.5 328.2 11.9
2002-07-09 03:29:39 51°16.227 2°53.401 333.7 14.5 328.3 11.9
2002-07-09 03:29:44 51°16.244 2°53.384 333.5 14.5 328.3 12
2002-07-09 03:29:49 51°16.261 2°53.367 333.7 14.5 328.2 12
2002-07-09 03:29:54 51°16.278 2°53.35 333.3 14.5 328.1 12
2002-07-09 03:29:59 51°16.295 2°53.333 333.2 14.5 328 12
2002-07-09 03:30:03 51°16.308 2°53.32 333 14.5 327.9 12
2002-07-09 03:30:09 51°16.329 2°53.299 332.8 14.5 327.7 12
2002-07-09 03:30:14 51°16.346 2°53.282 332.7 14.5 327.6 12.1
2002-07-09 03:30:19 51°16.363 2°53.265 332.8 14.5 327.6 12.1
2002-07-09 03:30:24 51°16.38 2°53.248 333.2 14.5 327.8 12
2002-07-09 03:30:29 51°16.396 2°53.231 333.2 14.4 327.9 12
2002-07-09 03:30:35 51°16.417 2°53.211 333.3 14.4 328.1 12
2002-07-09 03:30:39 51°16.431 2°53.198 333.5 14.4 328.2 12
2002-07-09 03:30:44 51°16.447 2°53.181 333.5 14.4 328.2 11.9
2002-07-09 03:30:49 51°16.464 2°53.164 333.2 14.4 328.2 11.9
2002-07-09 03:30:54 51°16.481 2°53.147 332.8 14.4 328 11.9
2002-07-09 03:30:59 51°16.498 2°53.13 332.7 14.4 327.7 11.8
2002-07-09 03:31:05 51°16.518 2°53.11 332.5 14.4 327.5 11.8
2002-07-09 03:31:09 51°16.532 2°53.096 332.8 14.4 327.7 11.7
2002-07-09 03:31:14 51°16.549 2°53.079 333.2 14.4 327.9 11.6
2002-07-09 03:31:19 51°16.566 2°53.062 333.3 14.4 328.1 11.5
2002-07-09 03:31:24 51°16.583 2°53.046 333.2 14.4 328.2 11.5
2002-07-09 03:31:29 51°16.6 2°53.029 333.5 14.4 328.2 11.4
2002-07-09 03:31:34 51°16.617 2°53.012 333.3 14.4 328.3 11.3
2002-07-09 03:31:39 51°16.634 2°52.996 333.5 14.4 328.3 11.2
2002-07-09 03:31:44 51°16.651 2°52.979 333.7 14.4 328.4 11.1
2002-07-09 03:31:49 51°16.668 2°52.963 333.5 14.3 328.5 10.9
2002-07-09 03:31:54 51°16.685 2°52.946 333.5 14.4 328.5 10.9
2002-07-09 03:31:59 51°16.702 2°52.929 333.3 14.3 328.4 10.9
2002-07-09 03:32:03 51°16.715 2°52.916 333.2 14.3 328.3 10.5
2002-07-09 03:32:09 51°16.735 2°52.896 333.3 14.3 328.2 10.5
2002-07-09 03:32:14 51°16.752 2°52.879 333.3 14.3 328.2 10.2
2002-07-09 03:32:19 51°16.769 2°52.863 333.3 14.3 328.3 9.7
2002-07-09 03:32:24 51°16.786 2°52.846 333.7 14.2 328.5 9.3
2002-07-09 03:32:29 51°16.803 2°52.83 333.7 14.2 328.6 9.1
2002-07-09 03:32:35 51°16.823 2°52.811 333.7 14.1 328.7 9.2
2002-07-09 03:32:39 51°16.836 2°52.798 333.8 14 328.9 9.1
2002-07-09 03:32:44 51°16.853 2°52.782 333.7 14 328.7 9.1
2002-07-09 03:32:49 51°16.869 2°52.766 333.7 14 328.9 9
2002-07-09 03:32:54 51°16.886 2°52.75 333.7 14 328.7 9
2002-07-09 03:32:59 51°16.903 2°52.734 333.8 14.1 328.7 8.9
2002-07-09 03:33:05 51°16.923 2°52.714 334 14.1 328.9 9.1
2002-07-09 03:33:09 51°16.936 2°52.701 333.8 14.1 328.9 9.1
2002-07-09 03:33:15 51°16.956 2°52.682 333.8 14.1 329 9.3
2002-07-09 03:33:19 51°16.97 2°52.669 334 14.2 328.9 9.6
2002-07-09 03:33:24 51°16.987 2°52.653 334 14.2 328.9 9.8
2002-07-09 03:33:29 51°17.004 2°52.636 333.8 14.3 329.1 9.9
2002-07-09 03:33:34 51°17.021 2°52.62 334.3 14.4 329.3 9.7
2002-07-09 03:33:39 51°17.039 2°52.605 335.2 14.4 330.1 9.4
2002-07-09 03:33:44 51°17.056 2°52.589 336 14.4 330.6 9.1
2002-07-09 03:33:49 51°17.074 2°52.574 336.8 14.3 331.7 9.2
2002-07-09 03:33:54 51°17.091 2°52.56 337.5 14.2 332 9.3
2002-07-09 03:33:59 51°17.109 2°52.546 338.3 14.1 332.8 9.1
2002-07-09 03:34:04 51°17.126 2°52.532 338.2 14.1 332.9 9.2
2002-07-09 03:34:09 51°17.143 2°52.517 338.3 14.2 333 9.3
2002-07-09 03:34:15 51°17.164 2°52.5 337.7 14.2 332.8 9.5
2002-07-09 03:34:19 51°17.178 2°52.488 336.8 14.3 332 9.5
2002-07-09 03:34:25 51°17.199 2°52.47 336.5 14.3 331.5 9.7
2002-07-09 03:34:29 51°17.213 2°52.458 336.8 14.3 331.6 9.6
2002-07-09 03:34:34 51°17.231 2°52.443 337.3 14.3 331.8 9.7
2002-07-09 03:34:39 51°17.249 2°52.428 338 14.4 332.5 9.7
2002-07-09 03:34:44 51°17.267 2°52.414 338.3 14.4 333 9.9
2002-07-09 03:34:49 51°17.284 2°52.4 339 14.4 333.6 9.9
2002-07-09 03:34:55 51°17.306 2°52.383 339.3 14.4 333.9 9.9
2002-07-09 03:34:59 51°17.32 2°52.373 339.7 14.4 334.3 10.1
2002-07-09 03:35:04 51°17.338 2°52.359 339.5 14.4 334.4 9.9
2002-07-09 03:35:09 51°17.356 2°52.345 339.5 14.4 334.3 10
2002-07-09 03:35:14 51°17.374 2°52.33 339.2 14.4 334 9.9
2002-07-09 03:35:19 51°17.392 2°52.317 339.2 14.4 334 10
2002-07-09 03:35:25 51°17.414 2°52.3 338.8 14.4 333.9 10
2002-07-09 03:35:29 51°17.428 2°52.288 339.2 14.4 334 9.9
2002-07-09 03:35:34 51°17.446 2°52.275 339.2 14.4 334.1 10.2
2002-07-09 03:35:39 51°17.464 2°52.261 339.3 14.4 334.4 10.1
2002-07-09 03:35:44 51°17.482 2°52.247 339.8 14.4 334.5 10.2
2002-07-09 03:35:49 51°17.5 2°52.234 340.2 14.4 334.9 10.1
2002-07-09 03:35:55 51°17.522 2°52.218 340.7 14.4 335.3 9.9
2002-07-09 03:35:59 51°17.537 2°52.208 341.2 14.4 335.9 10
2002-07-09 03:36:05 51°17.559 2°52.193 341.5 14.4 336.1 9.9
2002-07-09 03:36:09 51°17.574 2°52.182 341.7 14.4 336.3 10.1
2002-07-09 03:36:14 51°17.592 2°52.169 341.3 14.4 336.2 10.1
2002-07-09 03:36:19 51°17.61 2°52.156 341.2 14.4 335.9 10.1
2002-07-09 03:36:25 51°17.632 2°52.14 340.5 14.4 335.6 10.2
2002-07-09 03:36:29 51°17.646 2°52.129 340.2 14.4 335 10.2
2002-07-09 03:36:34 51°17.664 2°52.116 339.8 14.4 334.6 10
2002-07-09 03:36:39 51°17.682 2°52.102 340.2 14.4 334.8 10
2002-07-09 03:36:45 51°17.704 2°52.086 340.5 14.4 335.1 9.9
2002-07-09 03:36:49 51°17.719 2°52.077 341.5 14.4 336.2 10.2
2002-07-09 03:36:54 51°17.737 2°52.065 342.8 14.3 337.2 10
2002-07-09 03:36:59 51°17.756 2°52.053 343.7 14.3 338.4 10.1
2002-07-09 03:37:05 51°17.778 2°52.039 344.5 14.3 338.9 9.9
2002-07-09 03:37:09 51°17.793 2°52.03 344.7 14.3 339.2 9.9
2002-07-09 03:37:14 51°17.811 2°52.019 344.8 14.3 339.3 10
2002-07-09 03:37:19 51°17.83 2°52.008 344.7 14.3 339.3 9.8
2002-07-09 03:37:25 51°17.852 2°51.994 344.7 14.3 339.3 9.9
2002-07-09 03:37:29 51°17.867 2°51.986 344.7 14.3 339.2 10.1
2002-07-09 03:37:35 51°17.889 2°51.972 344.3 14.3 339.1 10
2002-07-09 03:37:39 51°17.904 2°51.963 344.7 14.3 339 10
2002-07-09 03:37:44 51°17.923 2°51.951 344.5 14.3 339.3 9.9
2002-07-09 03:37:49 51°17.941 2°51.94 345.2 14.3 339.4 10.1
2002-07-09 03:37:54 51°17.96 2°51.929 345.3 14.3 339.8 10.1
2002-07-09 03:37:59 51°17.979 2°51.918 345.7 14.3 340 10.1
2002-07-09 03:38:03 51°17.994 2°51.91 346.2 14.4 340.4 10.1
2002-07-09 03:38:09 51°18.016 2°51.897 345.8 14.4 340.3 10.4
2002-07-09 03:38:14 51°18.035 2°51.886 346.2 14.3 340.4 10.3
2002-07-09 03:38:19 51°18.054 2°51.876 346.3 14.4 340.5 10.3
2002-07-09 03:38:24 51°18.073 2°51.865 346.5 14.4 340.8 10.4
2002-07-09 03:38:29 51°18.092 2°51.855 346.7 14.4 341 10.5
2002-07-09 03:38:34 51°18.111 2°51.845 346.7 14.4 341.1 10.5
2002-07-09 03:38:39 51°18.13 2°51.834 346.7 14.4 341.1 10.6
2002-07-09 03:38:43 51°18.145 2°51.826 346.7 14.4 341.1 10.5
2002-07-09 03:38:49 51°18.168 2°51.813 346.3 14.4 340.8 10.8
2002-07-09 03:38:54 51°18.186 2°51.802 346.2 14.4 340.7 10.7
2002-07-09 03:38:59 51°18.205 2°51.792 346.2 14.5 340.5 10.8
2002-07-09 03:39:04 51°18.224 2°51.781 346 14.5 340.5 10.8
2002-07-09 03:39:09 51°18.243 2°51.77 346.2 14.5 340.5 11
2002-07-09 03:39:14 51°18.262 2°51.759 345.7 14.5 340.4 11.2
2002-07-09 03:39:19 51°18.281 2°51.748 346 14.5 340.3 11.1
2002-07-09 03:39:25 51°18.304 2°51.735 345.8 14.5 340.3 11.2
2002-07-09 03:39:29 51°18.319 2°51.726 345.7 14.5 340.2 11.1
2002-07-09 03:39:34 51°18.338 2°51.715 345.3 14.5 340.1 11.4
2002-07-09 03:39:39 51°18.357 2°51.704 345.3 14.5 339.9 11.6
2002-07-09 03:39:44 51°18.376 2°51.694 345.5 14.5 339.9 11.7
2002-07-09 03:39:49 51°18.395 2°51.683 345.3 14.5 339.9 11.8
2002-07-09 03:39:54 51°18.414 2°51.672 345.5 14.5 340 11.9
2002-07-09 03:39:59 51°18.432 2°51.661 345.5 14.5 340.2 12
2002-07-09 03:40:04 51°18.451 2°51.651 346.7 14.5 340.9 12.1
2002-07-09 03:40:09 51°18.471 2°51.64 347 14.5 341.5 12.2
2002-07-09 03:40:14 51°18.49 2°51.631 348.2 14.5 342.2 12.4
2002-07-09 03:40:19 51°18.509 2°51.622 348.8 14.4 343 12.4
2002-07-09 03:40:24 51°18.528 2°51.613 349.3 14.4 343.5 12.6
2002-07-09 03:40:29 51°18.547 2°51.604 349.5 14.4 343.8 12.6
2002-07-09 03:40:34 51°18.566 2°51.595 349.7 14.4 344 12.8
2002-07-09 03:40:39 51°18.586 2°51.586 349.3 14.4 343.9 12.9
2002-07-09 03:40:44 51°18.605 2°51.578 349.3 14.4 343.9 13
2002-07-09 03:40:49 51°18.624 2°51.568 349 14.4 343.6 13.1
2002-07-09 03:40:54 51°18.643 2°51.559 348.7 14.4 343.3 13.2
2002-07-09 03:40:59 51°18.662 2°51.55 348.5 14.4 343 13.2
2002-07-09 03:41:05 51°18.685 2°51.539 348.3 14.4 342.8 13.3
2002-07-09 03:41:09 51°18.701 2°51.531 348.7 14.4 343 13.4
2002-07-09 03:41:14 51°18.72 2°51.522 348.7 14.4 342.9 13.5
2002-07-09 03:41:19 51°18.739 2°51.513 348.8 14.4 343.2 13.5
2002-07-09 03:41:25 51°18.762 2°51.502 348.8 14.4 343.3 13.7
2002-07-09 03:41:29 51°18.777 2°51.494 348.8 14.4 343.4 13.8
2002-07-09 03:41:34 51°18.796 2°51.485 348.8 14.4 343.4 13.8
2002-07-09 03:41:39 51°18.815 2°51.476 348.7 14.4 343.1 13.9
2002-07-09 03:41:44 51°18.834 2°51.467 348.8 14.4 343.2 14
2002-07-09 03:41:49 51°18.854 2°51.457 349 14.4 343.3 14
2002-07-09 03:41:54 51°18.873 2°51.448 348.8 14.4 343.2 14
2002-07-09 03:41:59 51°18.892 2°51.439 348.7 14.4 343.2 14
2002-07-09 03:42:04 51°18.911 2°51.429 348.7 14.4 343.1 14.1
2002-07-09 03:42:08 51°18.926 2°51.422 348.5 14.4 343 14.2
2002-07-09 03:42:14 51°18.949 2°51.41 348.5 14.4 342.9 14.3
2002-07-09 03:42:19 51°18.968 2°51.401 348.2 14.4 342.8 14.5
2002-07-09 03:42:24 51°18.987 2°51.391 348.3 14.4 342.8 14.4
2002-07-09 03:42:29 51°19.006 2°51.382 348.7 14.4 343.1 14.3
2002-07-09 03:42:34 51°19.025 2°51.373 348.8 14.4 343.1 14.2
2002-07-09 03:42:39 51°19.045 2°51.364 348.8 14.4 343.4 14
2002-07-09 03:42:44 51°19.064 2°51.354 348.8 14.4 343.3 14
2002-07-09 03:42:49 51°19.083 2°51.345 349.2 14.4 343.5 14.3
2002-07-09 03:42:55 51°19.106 2°51.335 348.8 14.4 343.4 14.4
2002-07-09 03:42:59 51°19.121 2°51.327 349.2 14.4 343.4 14.4
2002-07-09 03:43:05 51°19.144 2°51.316 349 14.4 343.3 14.5
2002-07-09 03:43:09 51°19.16 2°51.309 348.8 14.4 343.2 14.5
2002-07-09 03:43:14 51°19.179 2°51.3 348.8 14.4 343.2 14.5
2002-07-09 03:43:19 51°19.198 2°51.29 348.8 14.5 343.2 14.7
2002-07-09 03:43:24 51°19.217 2°51.281 348.7 14.5 343.1 14.7
2002-07-09 03:43:29 51°19.236 2°51.272 348.8 14.5 343.2 14.7
2002-07-09 03:43:34 51°19.256 2°51.262 348.8 14.5 343.4 14.8
2002-07-09 03:43:39 51°19.275 2°51.253 348.5 14.5 343.1 14.7
2002-07-09 03:43:44 51°19.294 2°51.244 349 14.5 343.2 14.8
2002-07-09 03:43:49 51°19.314 2°51.235 349 14.5 343.4 14.6
2002-07-09 03:43:54 51°19.333 2°51.226 349.2 14.5 343.6 14.6
2002-07-09 03:43:59 51°19.352 2°51.216 349 14.5 343.5 14.6
2002-07-09 03:44:04 51°19.372 2°51.207 349 14.5 343.4 14.6
2002-07-09 03:44:09 51°19.391 2°51.198 348.5 14.5 343.2 14.6
2002-07-09 03:44:14 51°19.411 2°51.189 348.8 14.5 343.3 14.6
2002-07-09 03:44:19 51°19.43 2°51.18 348.7 14.5 343.3 14.5
2002-07-09 03:44:24 51°19.45 2°51.171 349 14.5 343.4 14.5
2002-07-09 03:44:29 51°19.468 2°51.162 349 14.5 343.4 14.5
2002-07-09 03:44:34 51°19.487 2°51.152 348.8 14.5 343.5 14.3
2002-07-09 03:44:39 51°19.507 2°51.143 348.8 14.6 343.5 14.3
2002-07-09 03:44:44 51°19.526 2°51.134 348.8 14.6 343.4 14.1
2002-07-09 03:44:49 51°19.546 2°51.125 348.5 14.5 343.4 14.3
2002-07-09 03:44:54 51°19.565 2°51.115 348.5 14.6 343.3 14
2002-07-09 03:44:59 51°19.584 2°51.106 348.8 14.6 343.4 13.8
2002-07-09 03:45:04 51°19.604 2°51.097 348.7 14.6 343.4 13.4
2002-07-09 03:45:09 51°19.623 2°51.087 348.8 14.5 343.3 13.4
2002-07-09 03:45:14 51°19.642 2°51.078 348.7 14.5 343.3 13
2002-07-09 03:45:19 51°19.661 2°51.069 348.5 14.5 343.3 12.6
2002-07-09 03:45:25 51°19.684 2°51.058 348.5 14.5 343 12.5
2002-07-09 03:45:29 51°19.7 2°51.051 348.5 14.5 342.9 12.4
2002-07-09 03:45:34 51°19.719 2°51.041 348.5 14.5 342.8 12.2
2002-07-09 03:45:39 51°19.738 2°51.031 348.2 14.5 342.3 12
2002-07-09 03:45:44 51°19.757 2°51.021 347.8 14.5 342.1 12.1
2002-07-09 03:45:49 51°19.776 2°51.011 348.3 14.5 342.1 12.2
2002-07-09 03:45:54 51°19.796 2°51.002 348.7 14.5 342.4 12.2
2002-07-09 03:45:59 51°19.815 2°50.992 349.2 14.5 343 12.1
2002-07-09 03:46:04 51°19.834 2°50.983 349.5 14.5 343.3 12.1
2002-07-09 03:46:09 51°19.853 2°50.974 349.2 14.5 343.1 12
2002-07-09 03:46:14 51°19.873 2°50.964 349.2 14.5 343.3 12
2002-07-09 03:46:19 51°19.892 2°50.955 349.3 14.5 343.4 12.2
2002-07-09 03:46:24 51°19.912 2°50.945 349 14.5 343.2 12.3
2002-07-09 03:46:29 51°19.931 2°50.935 349.3 14.6 343.3 12.4
2002-07-09 03:46:35 51°19.955 2°50.923 349 14.6 343.2 12.3
2002-07-09 03:46:39 51°19.97 2°50.916 349 14.6 343 12.7
2002-07-09 03:46:44 51°19.989 2°50.907 348.8 14.5 342.9 12.7
2002-07-09 03:46:49 51°20.008 2°50.897 348.7 14.6 342.7 12.7
2002-07-09 03:46:54 51°20.028 2°50.888 348.5 14.6 342.6 12.7
2002-07-09 03:46:59 51°20.047 2°50.878 348.3 14.6 342.4 12.9
2002-07-09 03:47:05 51°20.07 2°50.866 348.5 14.6 342.4 13.1
2002-07-09 03:47:09 51°20.085 2°50.858 348.5 14.6 342.4 13.2
2002-07-09 03:47:14 51°20.105 2°50.849 348.5 14.6 342.5 13.3
2002-07-09 03:47:19 51°20.124 2°50.839 348.8 14.6 342.6 13.3
2002-07-09 03:47:24 51°20.143 2°50.829 348.8 14.6 342.6 13.3
2002-07-09 03:47:29 51°20.163 2°50.819 348.5 14.6 342.5 13.3
2002-07-09 03:47:35 51°20.186 2°50.808 348.8 14.6 342.5 13.3
2002-07-09 03:47:39 51°20.202 2°50.8 348.7 14.6 342.6 13.7
2002-07-09 03:47:44 51°20.221 2°50.79 349 14.6 342.7 14
2002-07-09 03:47:49 51°20.241 2°50.78 348.8 14.6 342.9 14.1
2002-07-09 03:47:54 51°20.26 2°50.771 348.7 14.6 342.8 14.4
2002-07-09 03:47:59 51°20.28 2°50.761 348.7 14.7 342.9 14.6
2002-07-09 03:48:05 51°20.303 2°50.75 349 14.7 342.9 14.7
2002-07-09 03:48:09 51°20.319 2°50.742 348.7 14.7 342.8 15
2002-07-09 03:48:15 51°20.342 2°50.731 348.5 14.7 342.8 15.2
2002-07-09 03:48:18 51°20.354 2°50.725 348.7 14.7 342.8 15.4
2002-07-09 03:48:24 51°20.377 2°50.714 348.7 14.7 342.9 15.6
2002-07-09 03:48:29 51°20.396 2°50.704 348.8 14.7 342.9 15.7
2002-07-09 03:48:34 51°20.415 2°50.695 348.8 14.7 343.1 16
2002-07-09 03:48:39 51°20.434 2°50.686 349 14.7 343 16.2
2002-07-09 03:48:44 51°20.453 2°50.676 348.7 14.6 342.9 16.4
2002-07-09 03:48:49 51°20.472 2°50.666 348.7 14.6 342.7 16.7
2002-07-09 03:48:54 51°20.491 2°50.657 348.8 14.6 342.9 17
2002-07-09 03:48:59 51°20.511 2°50.647 348.7 14.6 342.7 17.2
2002-07-09 03:49:04 51°20.53 2°50.638 348.5 14.6 342.8 17.5
2002-07-09 03:49:09 51°20.549 2°50.628 348.3 14.6 342.6 17.7
2002-07-09 03:49:14 51°20.568 2°50.618 348.2 14.7 342.7 18
2002-07-09 03:49:19 51°20.587 2°50.609 348.5 14.6 342.6 18.3
2002-07-09 03:49:25 51°20.61 2°50.597 348.7 14.6 342.7 18.6
2002-07-09 03:49:29 51°20.625 2°50.589 348.8 14.6 342.7 18.8
2002-07-09 03:49:34 51°20.645 2°50.58 348.8 14.5 342.7 19.2
2002-07-09 03:49:39 51°20.664 2°50.57 348.7 14.5 342.6 19.5
2002-07-09 03:49:44 51°20.683 2°50.56 348.3 14.6 342.5 19.6
2002-07-09 03:49:49 51°20.702 2°50.55 348.3 14.5 342.4 20
2002-07-09 03:49:54 51°20.721 2°50.54 348.7 14.5 342.4 20.2
2002-07-09 03:49:59 51°20.74 2°50.531 348.8 14.5 342.6 20.5
2002-07-09 03:50:03 51°20.756 2°50.523 349.2 14.5 342.9 20.7
2002-07-09 03:50:09 51°20.778 2°50.512 349.2 14.5 343.1 20.9
2002-07-09 03:50:14 51°20.798 2°50.503 349.3 14.4 343.1 21.1
2002-07-09 03:50:19 51°20.817 2°50.494 349 14.4 343.1 21.3
2002-07-09 03:50:24 51°20.836 2°50.484 348.8 14.5 343 21.5
2002-07-09 03:50:29 51°20.855 2°50.475 348.5 14.5 342.7 21.8
2002-07-09 03:50:35 51°20.878 2°50.463 348.7 14.5 342.7 21.9
2002-07-09 03:50:39 51°20.893 2°50.455 348.7 14.5 342.8 22.1
2002-07-09 03:50:45 51°20.916 2°50.444 348.5 14.5 342.8 22.3
2002-07-09 03:50:49 51°20.931 2°50.436 348.8 14.5 343 22.4
2002-07-09 03:50:54 51°20.951 2°50.427 348.8 14.4 343.1 22.5
2002-07-09 03:50:59 51°20.97 2°50.418 349 14.4 343.4 22.5
2002-07-09 03:51:04 51°20.989 2°50.409 348.8 14.4 343.4 22.7
2002-07-09 03:51:09 51°21.008 2°50.399 349 14.4 343.5 22.7
2002-07-09 03:51:15 51°21.031 2°50.388 348.8 14.5 343.5 22.5
2002-07-09 03:51:19 51°21.046 2°50.381 349.2 14.4 343.7 22.7
2002-07-09 03:51:24 51°21.066 2°50.372 349.2 14.4 343.7 22.8
2002-07-09 03:51:29 51°21.085 2°50.363 348.7 14.4 343.6 22.7
2002-07-09 03:51:34 51°21.104 2°50.354 348.8 14.5 343.6 22.7
2002-07-09 03:51:39 51°21.123 2°50.345 348.8 14.5 343.7 22.7
2002-07-09 03:51:44 51°21.143 2°50.336 348.7 14.5 343.7 22.7
2002-07-09 03:51:49 51°21.162 2°50.327 348.7 14.5 343.7 22.7
2002-07-09 03:51:54 51°21.182 2°50.318 348.7 14.5 343.7 22.8
2002-07-09 03:51:59 51°21.201 2°50.309 348.8 14.5 343.7 22.7
2002-07-09 03:52:04 51°21.22 2°50.3 348.7 14.4 343.6 22.7
2002-07-09 03:52:09 51°21.24 2°50.291 348.8 14.5 343.7 22.8
2002-07-09 03:52:15 51°21.262 2°50.28 349 14.4 343.7 22.8
2002-07-09 03:52:19 51°21.278 2°50.273 349 14.5 343.8 22.8
2002-07-09 03:52:24 51°21.297 2°50.264 348.7 14.5 343.7 22.7
2002-07-09 03:52:29 51°21.316 2°50.255 348.5 14.5 343.7 22.6
2002-07-09 03:52:34 51°21.336 2°50.245 348.3 14.5 343.3 22.5
2002-07-09 03:52:39 51°21.355 2°50.236 348.5 14.4 343.3 22.5
2002-07-09 03:52:44 51°21.374 2°50.227 349 14.4 343.6 22.4
2002-07-09 03:52:49 51°21.393 2°50.218 348.7 14.4 343.7 22.2
2002-07-09 03:52:55 51°21.416 2°50.207 348.7 14.4 343.6 22.2
2002-07-09 03:52:59 51°21.432 2°50.2 348.7 14.5 343.4 22.1
2002-07-09 03:53:04 51°21.451 2°50.191 348.5 14.5 343.2 22.1
2002-07-09 03:53:09 51°21.47 2°50.181 348.5 14.4 343.2 22
2002-07-09 03:53:14 51°21.489 2°50.172 348.7 14.4 343.5 21.9
2002-07-09 03:53:19 51°21.509 2°50.163 349 14.5 343.7 22
2002-07-09 03:53:24 51°21.528 2°50.154 349 14.4 343.7 22
2002-07-09 03:53:29 51°21.547 2°50.145 349 14.4 344 21.9
2002-07-09 03:53:35 51°21.57 2°50.135 349.2 14.4 344 21.8
2002-07-09 03:53:39 51°21.586 2°50.128 349.7 14.4 344.5 21.7
2002-07-09 03:53:44 51°21.606 2°50.12 350.2 14.5 344.7 21.7
2002-07-09 03:53:49 51°21.625 2°50.112 350.5 14.4 345.2 21.5
2002-07-09 03:53:54 51°21.644 2°50.104 350.5 14.5 345.4 21.6
2002-07-09 03:53:59 51°21.663 2°50.096 350.7 14.5 345.6 21.5
2002-07-09 03:54:05 51°21.687 2°50.087 351.2 14.5 345.7 21.5
2002-07-09 03:54:09 51°21.702 2°50.081 351.2 14.4 346 21.6
2002-07-09 03:54:14 51°21.722 2°50.073 351 14.4 346 21.6
2002-07-09 03:54:19 51°21.741 2°50.065 351 14.4 345.9 21.6
2002-07-09 03:54:24 51°21.761 2°50.057 350.7 14.4 345.6 21.6
2002-07-09 03:54:29 51°21.78 2°50.049 350.5 14.4 345.4 21.7
2002-07-09 03:54:35 51°21.803 2°50.039 350.3 14.4 345.3 21.7
2002-07-09 03:54:39 51°21.819 2°50.032 350.7 14.4 345.3 21.8
2002-07-09 03:54:44 51°21.838 2°50.024 350.5 14.5 345.2 21.8
2002-07-09 03:54:49 51°21.858 2°50.016 350.7 14.5 345.2 22
2002-07-09 03:54:54 51°21.877 2°50.008 351 14.5 345.4 22.1
2002-07-09 03:54:59 51°21.897 2°50 351.2 14.5 345.6 22
2002-07-09 03:55:04 51°21.916 2°49.992 351 14.5 345.7 22.2
2002-07-09 03:55:09 51°21.935 2°49.984 350.8 14.5 345.5 22.2
2002-07-09 03:55:15 51°21.959 2°49.974 350.8 14.4 345.5 22.3
2002-07-09 03:55:19 51°21.974 2°49.968 350.8 14.5 345.3 22.4
2002-07-09 03:55:24 51°21.994 2°49.959 350.7 14.5 345.3 22.5
2002-07-09 03:55:29 51°22.013 2°49.951 350.7 14.5 345.1 22.6
2002-07-09 03:55:34 51°22.033 2°49.943 350.7 14.5 345.2 22.7
2002-07-09 03:55:39 51°22.052 2°49.935 350.7 14.5 345.5 22.7
2002-07-09 03:55:45 51°22.076 2°49.926 351 14.5 345.7 22.8
2002-07-09 03:55:48 51°22.087 2°49.921 351.2 14.5 345.7 22.7
2002-07-09 03:55:54 51°22.11 2°49.911 350.7 14.5 345.6 22.8
2002-07-09 03:55:59 51°22.13 2°49.902 350.5 14.5 345.1 22.8
2002-07-09 03:56:04 51°22.149 2°49.894 349.8 14.5 344.8 22.8
2002-07-09 03:56:08 51°22.165 2°49.887 349.8 14.5 344.5 23
2002-07-09 03:56:14 51°22.188 2°49.876 349.8 14.5 344.3 22.8
2002-07-09 03:56:19 51°22.208 2°49.868 350 14.5 344.5 22.8
2002-07-09 03:56:24 51°22.227 2°49.859 350.3 14.5 344.6 22.6
2002-07-09 03:56:29 51°22.247 2°49.851 350.7 14.5 344.9 22.4
2002-07-09 03:56:34 51°22.266 2°49.843 351 14.5 345.1 22.2
2002-07-09 03:56:39 51°22.286 2°49.835 351 14.5 345.3 22.5
2002-07-09 03:56:44 51°22.305 2°49.826 350.7 14.5 345 22.5
2002-07-09 03:56:49 51°22.325 2°49.818 350.5 14.5 344.8 22.7
2002-07-09 03:56:54 51°22.344 2°49.809 350.5 14.5 344.5 22.8
2002-07-09 03:56:59 51°22.364 2°49.8 350.5 14.5 344.5 22.9
2002-07-09 03:57:05 51°22.387 2°49.79 350.2 14.5 344.5 23
2002-07-09 03:57:09 51°22.402 2°49.783 350.5 14.5 344.6 22.9
2002-07-09 03:57:14 51°22.422 2°49.775 350.3 14.5 344.6 22.5
2002-07-09 03:57:19 51°22.442 2°49.766 350.5 14.5 344.7 22.3
2002-07-09 03:57:24 51°22.461 2°49.758 350.7 14.5 344.7 21.4
2002-07-09 03:57:29 51°22.48 2°49.749 350.5 14.5 344.7 20.6
2002-07-09 03:57:35 51°22.503 2°49.739 350.5 14.4 344.6 20
2002-07-09 03:57:39 51°22.518 2°49.731 350.5 14.4 344.4 19.6
2002-07-09 03:57:44 51°22.538 2°49.723 350.5 14.4 344.3 21.1
2002-07-09 03:57:49 51°22.557 2°49.714 350.7 14.4 344.5 21
2002-07-09 03:57:54 51°22.576 2°49.706 350.8 14.4 344.7 20.2
2002-07-09 03:57:59 51°22.595 2°49.698 351.3 14.4 345.1 19.6
2002-07-09 03:58:03 51°22.61 2°49.692 351 14.4 345.1 18.8
2002-07-09 03:58:09 51°22.633 2°49.682 350.8 14.4 345.2 18.3
2002-07-09 03:58:14 51°22.652 2°49.674 350.7 14.4 345 17.4
2002-07-09 03:58:19 51°22.671 2°49.665 350.7 14.3 345 16.8
2002-07-09 03:58:24 51°22.69 2°49.658 351.2 14.3 345.1 15.8
2002-07-09 03:58:29 51°22.71 2°49.649 351 14.3 345.2 16.3
2002-07-09 03:58:34 51°22.729 2°49.641 350.8 14.3 345.1 16.3
2002-07-09 03:58:39 51°22.748 2°49.633 350.8 14.3 344.8 15.6
2002-07-09 03:58:45 51°22.771 2°49.623 350.7 14.3 344.9 14.4
2002-07-09 03:58:50 51°22.79 2°49.614 351 14.3 345 12.7
2002-07-09 03:58:54 51°22.805 2°49.608 351.2 14.3 345 15.7
2002-07-09 03:58:59 51°22.824 2°49.6 351 14.3 345 15.5
2002-07-09 03:59:05 51°22.848 2°49.59 351 14.3 345 14.9
2002-07-09 03:59:09 51°22.863 2°49.583 351.2 14.4 345.2 15.6
2002-07-09 03:59:15 51°22.887 2°49.574 351.2 14.5 345.3 15.3
2002-07-09 03:59:19 51°22.902 2°49.567 351.5 14.5 345.5 14.7
2002-07-09 03:59:24 51°22.921 2°49.559 351.5 14.4 345.8 12.5
2002-07-09 03:59:29 51°22.94 2°49.551 351.5 14.4 345.8 15.1
2002-07-09 03:59:34 51°22.96 2°49.543 351.3 14.4 345.8 15.7
2002-07-09 03:59:39 51°22.979 2°49.535 351.2 14.4 345.4 15.8
2002-07-09 03:59:45 51°23.002 2°49.526 351.2 14.5 345.4 16.1
2002-07-09 03:59:49 51°23.018 2°49.519 350.8 14.5 345 16
2002-07-09 03:59:55 51°23.041 2°49.509 350.5 14.5 345.1 15.2
2002-07-09 03:59:59 51°23.057 2°49.502 350.5 14.5 344.8 14.3
2002-07-09 04:00:04 51°23.077 2°49.493 350.3 14.4 344.7 13.6
2002-07-09 04:00:09 51°23.096 2°49.485 350.2 14.4 344.4 16.3
2002-07-09 04:00:14 51°23.115 2°49.476 350 14.4 344.3 16.9
2002-07-09 04:00:19 51°23.135 2°49.468 350.7 14.5 344.7 17.3
2002-07-09 04:00:24 51°23.154 2°49.459 350.5 14.5 344.8 17.9
2002-07-09 04:00:29 51°23.174 2°49.451 350.8 14.5 345.3 18.3
2002-07-09 04:00:35 51°23.197 2°49.441 350.8 14.5 345.1 18.2
2002-07-09 04:00:39 51°23.212 2°49.434 350.8 14.5 345.3 18.5
2002-07-09 04:00:44 51°23.232 2°49.426 350.8 14.5 345.2 18.9
2002-07-09 04:00:49 51°23.251 2°49.418 350.7 14.5 345.1 19.2
2002-07-09 04:00:54 51°23.27 2°49.409 350.7 14.5 344.8 19.2
2002-07-09 04:00:59 51°23.289 2°49.401 350.2 14.5 344.7 19
2002-07-09 04:01:05 51°23.312 2°49.391 350.5 14.5 344.6 18.8
2002-07-09 04:01:08 51°23.324 2°49.386 350.2 14.5 344.5 19
2002-07-09 04:01:14 51°23.347 2°49.375 349.8 14.5 344.3 19
2002-07-09 04:01:19 51°23.366 2°49.366 349.8 14.5 344.1 19.3
2002-07-09 04:01:24 51°23.385 2°49.358 350.2 14.5 344.1 19.9
2002-07-09 04:01:30 51°23.408 2°49.347 350.2 14.4 344.4 20.1
2002-07-09 04:01:34 51°23.424 2°49.341 350.7 14.4 344.7 20.3
2002-07-09 04:01:39 51°23.443 2°49.332 350.8 14.4 344.9 20.6
2002-07-09 04:01:45 51°23.466 2°49.323 351.2 14.4 345.2 20.6
2002-07-09 04:01:50 51°23.486 2°49.314 351 14.4 345.2 20.9
2002-07-09 04:01:54 51°23.502 2°49.308 351 14.5 345.3 21
2002-07-09 04:01:59 51°23.521 2°49.299 350.7 14.5 345 20.9
2002-07-09 04:02:05 51°23.544 2°49.29 351 14.4 345.1 20.4
2002-07-09 04:02:09 51°23.56 2°49.283 350.3 14.4 344.7 19.5
2002-07-09 04:02:14 51°23.579 2°49.274 350.5 14.4 344.7 21.2
2002-07-09 04:02:19 51°23.598 2°49.265 350.2 14.5 344.4 21.8
2002-07-09 04:02:23 51°23.614 2°49.259 350.7 14.4 344.8 22.1
2002-07-09 04:02:29 51°23.637 2°49.249 350.5 14.4 344.7 22.3
2002-07-09 04:02:34 51°23.656 2°49.24 350.3 14.4 344.7 22.3
2002-07-09 04:02:39 51°23.675 2°49.232 350.5 14.4 344.7 21.7
2002-07-09 04:02:44 51°23.695 2°49.224 350.5 14.4 344.8 21.9
2002-07-09 04:02:48 51°23.71 2°49.217 350.7 14.4 344.8 22.2
2002-07-09 04:02:54 51°23.733 2°49.207 350.5 14.4 344.7 22.1
2002-07-09 04:02:59 51°23.752 2°49.198 350.7 14.4 344.7 22
2002-07-09 04:03:05 51°23.775 2°49.188 350.7 14.5 344.8 21.5
2002-07-09 04:03:09 51°23.791 2°49.182 350.7 14.4 344.9 21
2002-07-09 04:03:14 51°23.81 2°49.173 350.2 14.4 344.7 21.7
2002-07-09 04:03:19 51°23.83 2°49.165 350.7 14.4 345 21.8
2002-07-09 04:03:23 51°23.845 2°49.158 351 14.4 345.1 21.8
2002-07-09 04:03:29 51°23.868 2°49.148 351 14.4 345.2 21.9
2002-07-09 04:03:34 51°23.888 2°49.14 350.7 14.4 345.1 21.9
2002-07-09 04:03:39 51°23.907 2°49.131 350.7 14.4 345 22
2002-07-09 04:03:44 51°23.927 2°49.123 350.3 14.5 344.8 22.1
2002-07-09 04:03:49 51°23.947 2°49.114 350.2 14.5 344.6 22.2
2002-07-09 04:03:54 51°23.966 2°49.106 350.2 14.5 344.6 22
2002-07-09 04:03:59 51°23.985 2°49.097 350.3 14.5 344.7 22
2002-07-09 04:04:04 51°24.004 2°49.089 350.7 14.5 345 21.9
2002-07-09 04:04:09 51°24.024 2°49.081 350.5 14.5 344.9 21.9
2002-07-09 04:04:14 51°24.043 2°49.072 350.5 14.5 345 21.9
2002-07-09 04:04:19 51°24.062 2°49.064 350.3 14.5 344.9 22
2002-07-09 04:04:24 51°24.082 2°49.055 350.5 14.5 344.9 22
2002-07-09 04:04:30 51°24.105 2°49.045 350.5 14.5 344.9 22.2
2002-07-09 04:04:34 51°24.12 2°49.039 350.8 14.5 345.1 22.2
2002-07-09 04:04:39 51°24.14 2°49.031 351 14.5 345.1 22.4
2002-07-09 04:04:45 51°24.163 2°49.021 350.5 14.5 345 22.1
2002-07-09 04:04:49 51°24.178 2°49.014 350.2 14.5 344.7 21
2002-07-09 04:04:55 51°24.202 2°49.004 350.3 14.5 344.7 22.1
2002-07-09 04:04:59 51°24.217 2°48.997 350.3 14.5 344.7 22.3
2002-07-09 04:05:04 51°24.236 2°48.988 350 14.5 344.5 22.5
2002-07-09 04:05:09 51°24.255 2°48.979 350 14.5 344.3 22.4
2002-07-09 04:05:14 51°24.275 2°48.97 349.7 14.5 343.9 21.9
2002-07-09 04:05:19 51°24.294 2°48.961 349.8 14.5 343.8 21.5
2002-07-09 04:05:24 51°24.314 2°48.952 349.5 14.5 343.7 21.5
2002-07-09 04:05:30 51°24.336 2°48.941 349.7 14.5 343.6 21.4
2002-07-09 04:05:35 51°24.356 2°48.932 349.8 14.5 343.8 20.1
2002-07-09 04:05:39 51°24.371 2°48.925 349.7 14.5 343.7 19.3
2002-07-09 04:05:44 51°24.391 2°48.916 350.2 14.5 343.8 19.1
2002-07-09 04:05:49 51°24.41 2°48.907 349.8 14.5 343.7 19.6
2002-07-09 04:05:54 51°24.429 2°48.899 349.8 14.5 343.9 19.9
2002-07-09 04:05:59 51°24.448 2°48.889 350 14.5 343.8 20.1
2002-07-09 04:06:05 51°24.471 2°48.878 349.8 14.5 343.8 19.7
2002-07-09 04:06:09 51°24.487 2°48.872 350 14.5 343.9 19.1
2002-07-09 04:06:15 51°24.51 2°48.861 350 14.5 343.9 18.1
2002-07-09 04:06:19 51°24.525 2°48.854 349.8 14.5 343.8 18.1
2002-07-09 04:06:24 51°24.545 2°48.845 349.7 14.5 343.6 17.9
2002-07-09 04:06:29 51°24.564 2°48.835 349.5 14.5 343.4 18.2
2002-07-09 04:06:34 51°24.583 2°48.826 349.5 14.5 343.5 18.3
2002-07-09 04:06:39 51°24.602 2°48.817 349.5 14.5 343.2 18.6
2002-07-09 04:06:44 51°24.621 2°48.808 350 14.5 343.5 18.7
2002-07-09 04:06:50 51°24.645 2°48.797 350 14.5 343.6 19.1
2002-07-09 04:06:54 51°24.66 2°48.789 349.8 14.5 343.6 19.3
2002-07-09 04:06:59 51°24.679 2°48.78 349.8 14.5 343.5 20
2002-07-09 04:07:04 51°24.699 2°48.771 349.3 14.5 343.3 20.7
2002-07-09 04:07:10 51°24.722 2°48.76 349.7 14.5 343.5 21.3
2002-07-09 04:07:14 51°24.737 2°48.754 351 14.5 344 21.7
2002-07-09 04:07:19 51°24.757 2°48.746 352.2 14.5 345.7 22
2002-07-09 04:07:23 51°24.773 2°48.741 353.2 14.5 346.8 22.7
2002-07-09 04:07:29 51°24.796 2°48.732 353.8 14.5 347.5 23.1
2002-07-09 04:07:34 51°24.816 2°48.726 354.7 14.4 348.5 23.3
2002-07-09 04:07:39 51°24.835 2°48.72 354.7 14.5 348.6 23.5
2002-07-09 04:07:44 51°24.855 2°48.714 355.5 14.4 349.2 23.8
2002-07-09 04:07:49 51°24.875 2°48.709 357 14.4 350.4 24
2002-07-09 04:07:54 51°24.895 2°48.705 358.5 14.4 351.7 24.1
2002-07-09 04:07:59 51°24.915 2°48.702 359.3 14.4 352.8 24.1
2002-07-09 04:08:03 51°24.93 2°48.699   14.4 353.6 24.2
2002-07-09 04:08:09 51°24.954 2°48.694 359.7 14.4 353.7 24.3
2002-07-09 04:08:14 51°24.974 2°48.691 0.2 14.4 353.9 24.5
2002-07-09 04:08:19 51°24.993 2°48.688 0.5 14.4 354.2 24.7
2002-07-09 04:08:23 51°25.009 2°48.686 0.2 14.4 354.3 24.9
2002-07-09 04:08:29 51°25.033 2°48.682 0.5 14.4 354.2 25.1
2002-07-09 04:08:34 51°25.053 2°48.678 0.3 14.3 354.1 25.1
2002-07-09 04:08:39 51°25.073 2°48.675   14.4 353.9 25.2
2002-07-09 04:08:45 51°25.096 2°48.671 359.8 14.4 353.8 25.4
2002-07-09 04:08:49 51°25.112 2°48.669 0.7 14.4 354.2 25.7
2002-07-09 04:08:54 51°25.132 2°48.665 359.8 14.4 353.9 25.9
2002-07-09 04:08:59 51°25.152 2°48.662 0.5 14.3 354.2 26
2002-07-09 04:09:04 51°25.172 2°48.658   14.3 353.8 26.2
2002-07-09 04:09:09 51°25.191 2°48.655 0.3 14.3 354 26.4
2002-07-09 04:09:15 51°25.215 2°48.651   14.3 353.9 26.7
2002-07-09 04:09:19 51°25.231 2°48.648 0.5 14.4 354.2 26.8
2002-07-09 04:09:24 51°25.25 2°48.645 0.3 14.4 354.1 27.3
2002-07-09 04:09:29 51°25.27 2°48.641 0.2 14.4 354.1 27.6
2002-07-09 04:09:35 51°25.294 2°48.637 359.7 14.4 353.7 27.8
2002-07-09 04:09:39 51°25.31 2°48.634 359.8 14.3 353.7 27.9
2002-07-09 04:09:44 51°25.33 2°48.631 0.3 14.3 353.8 27.9
2002-07-09 04:09:49 51°25.35 2°48.627 0.2 14.3 353.9 27.8
2002-07-09 04:09:54 51°25.369 2°48.625 0.7 14.3 354.2 27.7
2002-07-09 04:09:59 51°25.389 2°48.621 0.2 14.3 354.1 27.3
2002-07-09 04:10:03 51°25.405 2°48.618 0.2 14.3 354 26.9
2002-07-09 04:10:09 51°25.429 2°48.614   14.3 353.7 26.5
2002-07-09 04:10:14 51°25.448 2°48.61 359.8 14.3 353.6 26.1
2002-07-09 04:10:19 51°25.468 2°48.607 359.7 14.3 353.3 25.5
2002-07-09 04:10:25 51°25.491 2°48.602 359.7 14.3 353.4 24.8
2002-07-09 04:10:29 51°25.507 2°48.599   14.3 353.4 24
2002-07-09 04:10:34 51°25.527 2°48.596   14.3 353.4 23.7
2002-07-09 04:10:39 51°25.546 2°48.592 359.5 14.3 353.3 23.6
2002-07-09 04:10:43 51°25.562 2°48.589   14.3 353.4 23.5
2002-07-09 04:10:49 51°25.586 2°48.585 0.2 14.3 353.8 23.5
2002-07-09 04:10:54 51°25.606 2°48.582 0.3 14.3 353.7 23.4
2002-07-09 04:10:59 51°25.625 2°48.578 0.3 14.2 353.9 23.3
2002-07-09 04:11:03 51°25.64 2°48.575 359.7 13.9 353.5 23.3
2002-07-09 04:11:09 51°25.661 2°48.572 359.7 13.1 353.4 23.3
2002-07-09 04:11:14 51°25.678 2°48.569   12.5 353.4 23.2
2002-07-09 04:11:19 51°25.693 2°48.566 359.8 11.7 353.1 23.2
2002-07-09 04:11:25 51°25.711 2°48.562   11.2 353.4 23.2
2002-07-09 04:11:29 51°25.723 2°48.56   10.7 353.4 23.2
2002-07-09 04:11:34 51°25.737 2°48.558 0.5 10.4 353.4 23.3
2002-07-09 04:11:39 51°25.75 2°48.555 0.7 9.8 353.8 23.3
2002-07-09 04:11:44 51°25.762 2°48.553 1.2 9.3 354 23.4
2002-07-09 04:11:49 51°25.774 2°48.551 2 8.8 354.6 23.4
2002-07-09 04:11:54 51°25.785 2°48.55 3 8.3 355.1 23.4
2002-07-09 04:11:59 51°25.796 2°48.549 4 8 355.9 23.4
2002-07-09 04:12:04 51°25.806 2°48.548 5 7.7 356.5 23.4
2002-07-09 04:12:09 51°25.816 2°48.548 6.2 7.3 357.8 23.4
2002-07-09 04:12:14 51°25.825 2°48.547 7.3 7.1 358.4 23.4
2002-07-09 04:12:19 51°25.834 2°48.547 8.2 6.8 359.3 23.4
2002-07-09 04:12:24 51°25.843 2°48.548 9.3 6.6 0.2 23.4
2002-07-09 04:12:30 51°25.853 2°48.548 10.3 6.3 1.2 23.4
2002-07-09 04:12:34 51°25.86 2°48.549 11.3 6.1 2.1 23.4
2002-07-09 04:12:39 51°25.868 2°48.549 12.5 5.9 3.2 23.4
2002-07-09 04:12:43 51°25.874 2°48.55 13.5 5.8 3.8 23.3
2002-07-09 04:12:49 51°25.883 2°48.551 14.3 5.6 4.8 23.4
2002-07-09 04:12:54 51°25.891 2°48.553 15.3 5.5 5.5 23.4
2002-07-09 04:12:59 51°25.898 2°48.554 16.2 5.3 6.3 23.4
2002-07-09 04:13:05 51°25.906 2°48.556 17 5.2 6.9 23.4
2002-07-09 04:13:09 51°25.912 2°48.557 18 5.1 8 23.3
2002-07-09 04:13:14 51°25.918 2°48.559 18.7 5 8.5 23.3
2002-07-09 04:13:19 51°25.925 2°48.561 19.7 4.8 9.3 23.3
2002-07-09 04:13:23 51°25.93 2°48.562 20.3 4.7 9.7 23.2
2002-07-09 04:13:29 51°25.937 2°48.564 21.2 4.6 10.8 23.2
2002-07-09 04:13:34 51°25.944 2°48.567 21.7 4.6 10.8 23.3
2002-07-09 04:13:39 51°25.95 2°48.568 22 4.5 11.3 23.2
2002-07-09 04:13:44 51°25.955 2°48.571 22.8 4.4 12.2 23.3
2002-07-09 04:13:48 51°25.96 2°48.572 23.2 4.3 12.3 23.3
2002-07-09 04:13:54 51°25.967 2°48.575 24 4.3 12.8 23.3
2002-07-09 04:13:59 51°25.973 2°48.577 24.3 4.3 13 23.4
2002-07-09 04:14:03 51°25.977 2°48.579 24.8 4.2 14 23.3
2002-07-09 04:14:09 51°25.984 2°48.582 25.5 4.1 14.4 23.3
2002-07-09 04:14:14 51°25.989 2°48.584 25.7 4 14.6 23.2
2002-07-09 04:14:19 51°25.994 2°48.586 26 3.9 14.9 23.5
2002-07-09 04:14:24 51°25.999 2°48.588 26.8 3.9 15.2 23.3
2002-07-09 04:14:29 51°26.004 2°48.591 27 3.8 15.6 23.2
2002-07-09 04:14:34 51°26.009 2°48.593 27.7 3.7 15.8 23.1
2002-07-09 04:14:39 51°26.014 2°48.596 28.5 3.7 16.8 23.2
2002-07-09 04:14:43 51°26.018 2°48.597 28.8 3.6 17 23.2
2002-07-09 04:14:49 51°26.023 2°48.6 29.3 3.6 17.7 23.2
2002-07-09 04:14:55 51°26.028 2°48.603 29.8 3.5 18.2 23.4
2002-07-09 04:14:59 51°26.032 2°48.605 30.3 3.4 18.5 23.4
2002-07-09 04:15:05 51°26.037 2°48.608 30.8 3.4 18.6 23.4
2002-07-09 04:15:09 51°26.04 2°48.609 31.2 3.3 18.8 23.4
2002-07-09 04:15:14 51°26.045 2°48.612 31.7 3.3 19 23.4
2002-07-09 04:15:19 51°26.049 2°48.614 31.8 3.2 19.4 23.4
2002-07-09 04:15:23 51°26.052 2°48.616 31.8 3.2 19.8 23.2
2002-07-09 04:15:29 51°26.057 2°48.619 32.3 3.1 19.8 22.9
2002-07-09 04:15:34 51°26.061 2°48.621 32.7 3.1 19.5 22.5
2002-07-09 04:15:39 51°26.065 2°48.623 33 3.1 20.1 22.2
2002-07-09 04:15:44 51°26.068 2°48.626 33.3 3.1 20.2 23.3
2002-07-09 04:15:48 51°26.071 2°48.627 33.7 3 20.4 23.4
2002-07-09 04:15:54 51°26.076 2°48.63 34.2 2.9 20.6 23.5
2002-07-09 04:15:59 51°26.08 2°48.633 34.5 2.9 20.9 23.2
2002-07-09 04:16:03 51°26.082 2°48.635 34.8 2.9 21.4 23.5
2002-07-09 04:16:09 51°26.087 2°48.637 35.2 2.9 21.7 23.2
2002-07-09 04:16:14 51°26.091 2°48.64 35.5 2.9 21.9 23.1
2002-07-09 04:16:19 51°26.094 2°48.642 35.8 2.8 22.4 23
2002-07-09 04:16:24 51°26.097 2°48.644 36.2 2.8 22 22.9
2002-07-09 04:16:29 51°26.101 2°48.646 36.3 2.7 21.8 22.8
2002-07-09 04:16:34 51°26.104 2°48.649 36.8 2.7 22.5 22.5
2002-07-09 04:16:39 51°26.108 2°48.651 37.2 2.7 23.3 22.5
2002-07-09 04:16:43 51°26.111 2°48.653 37.7 2.7 23.7 21.8
2002-07-09 04:16:49 51°26.115 2°48.656 38 2.6 24.2 21.3
2002-07-09 04:16:54 51°26.118 2°48.658 38.3 2.6 24.3 22.1
2002-07-09 04:16:59 51°26.121 2°48.66 38.5 2.6 24 23.2
2002-07-09 04:17:05 51°26.125 2°48.663 38.7 2.6 24.2 23.5
2002-07-09 04:17:09 51°26.128 2°48.665 39.3 2.5 24.8 23.6
2002-07-09 04:17:14 51°26.131 2°48.668 39.7 2.5 25.2 23.4
2002-07-09 04:17:19 51°26.134 2°48.67 40 2.5 25.9 23.6
2002-07-09 04:17:23 51°26.136 2°48.672 40.3 2.5 25.8 23.5
2002-07-09 04:17:29 51°26.14 2°48.675 40.7 2.5 25.7 23.3
2002-07-09 04:17:34 51°26.143 2°48.677 40.8 2.5 26 23.2
2002-07-09 04:17:39 51°26.146 2°48.68 41 2.5 26.2 23.2
2002-07-09 04:17:44 51°26.149 2°48.682 41.3 2.4 26.5 22.9
2002-07-09 04:17:48 51°26.152 2°48.684 41.5 2.4 26.4 22.7
2002-07-09 04:17:54 51°26.155 2°48.687 41.8 2.4 26.8 22
2002-07-09 04:17:59 51°26.158 2°48.689 41.8 2.4 26.9 21.7
2002-07-09 04:18:03 51°26.16 2°48.691 42.2 2.4 27.1 21.2
2002-07-09 04:18:09 51°26.164 2°48.694 42.3 2.4 27.5 21.1
2002-07-09 04:18:14 51°26.167 2°48.697 42.8 2.4 27.9 22.8
2002-07-09 04:18:19 51°26.17 2°48.699 43 2.4 27.7 23.2
2002-07-09 04:18:24 51°26.172 2°48.702 43 2.3 27.8 23.4
2002-07-09 04:18:29 51°26.175 2°48.704 43.2 2.3 28.3 23.6
2002-07-09 04:18:34 51°26.178 2°48.707 43.5 2.3 28.6 23.6
2002-07-09 04:18:39 51°26.181 2°48.709 43.8 2.3 28.7 23.6
2002-07-09 04:18:44 51°26.184 2°48.712 44 2.3 28.6 23.4
2002-07-09 04:18:49 51°26.186 2°48.714 44.2 2.3 28.9 23.3
2002-07-09 04:18:54 51°26.189 2°48.716 44.3 2.3 28.8 23.4
2002-07-09 04:18:59 51°26.192 2°48.719 44.3 2.3 29.3 23
2002-07-09 04:19:03 51°26.194 2°48.721 44.7 2.3 29.4 22.7
2002-07-09 04:19:09 51°26.197 2°48.724 44.8 2.3 29.2 22.6
2002-07-09 04:19:15 51°26.2 2°48.727 45.2 2.2 29.5 22.3
2002-07-09 04:19:19 51°26.202 2°48.729 45 2.2 29.6 21.8
2002-07-09 04:19:25 51°26.205 2°48.732 45.2 2.2 30 21.8
2002-07-09 04:19:29 51°26.208 2°48.734 45.2 2.2 30 21
2002-07-09 04:19:34 51°26.21 2°48.736 45.5 2.2 30.5 20.6
2002-07-09 04:19:39 51°26.213 2°48.738 45.7 2.2 30.1 22
2002-07-09 04:19:43 51°26.215 2°48.741 46 2.2 30.7 22.9
2002-07-09 04:19:49 51°26.218 2°48.744 46 2.2 30.6 23.3
2002-07-09 04:19:54 51°26.22 2°48.746 46.3 2.2 31.5 23.3
2002-07-09 04:19:59 51°26.223 2°48.749 46.3 2.2 31.1 23.5
2002-07-09 04:20:05 51°26.226 2°48.752 46.7 2.2 31 23.3
2002-07-09 04:20:08 51°26.228 2°48.753 46.8 2.2 31 23.4
2002-07-09 04:20:14 51°26.231 2°48.756 47 2.1 31.3 23.1
2002-07-09 04:20:19 51°26.233 2°48.758 46.8 2.1 30.7 22.7
2002-07-09 04:20:25 51°26.236 2°48.761 47.3 2 31.1 23
2002-07-09 04:20:29 51°26.238 2°48.763 47.3 2 30.8 22.8
2002-07-09 04:20:35 51°26.241 2°48.765 47.5 2 30.5 22.6
2002-07-09 04:20:39 51°26.243 2°48.767 47.7 1.9 30 22.2
2002-07-09 04:20:44 51°26.245 2°48.769 47.8 1.9 29.9 22
2002-07-09 04:20:49 51°26.247 2°48.771 47.8 1.8 29.8 21.5
2002-07-09 04:20:55 51°26.25 2°48.773 48 1.8 30.5 21.2
2002-07-09 04:20:59 51°26.251 2°48.775 48.2 1.8 30.1 21.1
2002-07-09 04:21:05 51°26.253 2°48.777 48.3 1.7 30.2 20.6
2002-07-09 04:21:09 51°26.255 2°48.779 48.7 1.7 30.2 20.1
2002-07-09 04:21:15 51°26.257 2°48.781 49 1.7 30.2 19.8
2002-07-09 04:21:19 51°26.259 2°48.782 49.3 1.7 29.7 19.5
2002-07-09 04:21:24 51°26.261 2°48.784 49.3 1.6 29.7 19.9
2002-07-09 04:21:29 51°26.263 2°48.786 49.5 1.6 30.4 21.2
2002-07-09 04:21:35 51°26.265 2°48.788 49.8 1.6 30.3 22
2002-07-09 04:21:39 51°26.266 2°48.789 49.8 1.5 30 22.6
2002-07-09 04:21:43 51°26.268 2°48.791 50 1.5 29.5 23
2002-07-09 04:21:49 51°26.27 2°48.793 50.2 1.5 29.2 23.1
2002-07-09 04:21:55 51°26.272 2°48.795 50.3 1.5 29.2 23
2002-07-09 04:21:59 51°26.274 2°48.796 50.5 1.4 28.9 23.2
2002-07-09 04:22:04 51°26.275 2°48.797 50.7 1.4 29.1 23.3
2002-07-09 04:22:09 51°26.277 2°48.799 50.7 1.4 29 23.2
2002-07-09 04:22:15 51°26.279 2°48.801 50.8 1.4 29.1 23.2
2002-07-09 04:22:19 51°26.28 2°48.802 51 1.4 29.2 23.4
2002-07-09 04:22:24 51°26.282 2°48.803 51.2 1.3 29.3 23.3
2002-07-09 04:22:29 51°26.284 2°48.804 51.2 1.3 27.1 23
2002-07-09 04:22:34 51°26.285 2°48.806 51.3 1.3 27.4 22.9
2002-07-09 04:22:39 51°26.287 2°48.807 51.5 1.3 27.1 22.7
2002-07-09 04:22:43 51°26.288 2°48.808 51.5 1.3 27.5 22.8
2002-07-09 04:22:49 51°26.29 2°48.809 51.5 1.2 26.8 23.1
2002-07-09 04:22:54 51°26.291 2°48.811 51.7 1.2 26.6 22.9
2002-07-09 04:22:59 51°26.293 2°48.812 51.7 1.2 26.4 22.6
2002-07-09 04:23:05 51°26.294 2°48.813 51.8 1.2 26.6 22.4
2002-07-09 04:23:09 51°26.295 2°48.814 51.8 1.2 25.9 22.2
2002-07-09 04:23:14 51°26.297 2°48.815 52 1.2 25.7 22
2002-07-09 04:23:19 51°26.298 2°48.816 52.2 1.1 25.1 21.8
2002-07-09 04:23:23 51°26.299 2°48.817 52.3 1.1 25.8 22
2002-07-09 04:23:29 51°26.301 2°48.818 52.3 1.1 24.9 21.7
2002-07-09 04:23:34 51°26.302 2°48.819 52.7 1.1 25 21.2
2002-07-09 04:23:39 51°26.304 2°48.82 52.7 1.1 24.9 20.9
2002-07-09 04:23:44 51°26.305 2°48.821 52.7 1.1 24.9 20.6
2002-07-09 04:23:48 51°26.306 2°48.822 52.8 1.1 24.2 20.6
2002-07-09 04:23:54 51°26.307 2°48.823 53.2 1.1 25.1 20.2
2002-07-09 04:23:59 51°26.309 2°48.824 53.3 1 24.2 19.9
2002-07-09 04:24:03 51°26.31 2°48.825 53.5 1 24.2 19.7
2002-07-09 04:24:09 51°26.311 2°48.826 53.5 1 23.7 19.8
2002-07-09 04:24:14 51°26.313 2°48.827 53.8 1 24.4 19.6
2002-07-09 04:24:19 51°26.314 2°48.828 54 1 24 19.7
2002-07-09 04:24:24 51°26.315 2°48.828 54.3 0.9 24.5 20.4
2002-07-09 04:24:29 51°26.316 2°48.829 54.5 0.9 23.1 21.3
2002-07-09 04:24:34 51°26.317 2°48.83 54.8 0.9 23.4 21.9
2002-07-09 04:24:39 51°26.319 2°48.831 54.8 0.9 23.2 22.2
2002-07-09 04:24:43 51°26.319 2°48.832 55 0.9 24 22.4
2002-07-09 04:24:49 51°26.321 2°48.833 55 0.9 22.6 22.6
2002-07-09 04:24:55 51°26.322 2°48.834 55.3 0.9 23.1 22.7
2002-07-09 04:24:59 51°26.323 2°48.834 55.5 0.9 23.6 22.8
2002-07-09 04:25:04 51°26.324 2°48.835 55.7 0.9 22.7 22.7
2002-07-09 04:25:09 51°26.325 2°48.836 55.7 0.8 22.3 22.7
2002-07-09 04:25:14 51°26.327 2°48.836 55.8 0.8 21.3 22.6
2002-07-09 04:25:19 51°26.328 2°48.837 55.8 0.8 21.3 22.7
2002-07-09 04:25:23 51°26.328 2°48.838 55.8 0.8 21 22.9
2002-07-09 04:25:29 51°26.33 2°48.839 56.2 0.8 20.8 22.8
2002-07-09 04:25:34 51°26.331 2°48.839 56.3 0.8 20.4 22.7
2002-07-09 04:25:39 51°26.331 2°48.84 56.5 0.8 20.4 22.6
2002-07-09 04:25:44 51°26.332 2°48.84 56.5 0.8 20.1 22.5
2002-07-09 04:25:48 51°26.333 2°48.841 56.8 0.7 20.3 22.4
2002-07-09 04:25:54 51°26.334 2°48.842 57 0.8 19.5 22.3
2002-07-09 04:25:59 51°26.335 2°48.842 57 0.7 18.8 22.3
2002-07-09 04:26:03 51°26.336 2°48.842 57.3 0.7 19.5 22.2
2002-07-09 04:26:09 51°26.337 2°48.843 57.5 0.7 20 22.2
2002-07-09 04:26:14 51°26.338 2°48.844 57.5 0.7 20.9 22.1
2002-07-09 04:26:19 51°26.339 2°48.844 57.7 0.7 19.7 22
2002-07-09 04:26:24 51°26.34 2°48.845 57.8 0.7 19.2 21.9
2002-07-09 04:26:29 51°26.341 2°48.845 57.8 0.7 17.8 22
2002-07-09 04:26:34 51°26.342 2°48.846 58.2 0.7 17.1 21.9
2002-07-09 04:26:39 51°26.343 2°48.846 58.5 0.7 19.1 21.7
2002-07-09 04:26:43 51°26.343 2°48.846 58.7 0.7 18.4 21.5
2002-07-09 04:26:49 51°26.344 2°48.847 58.8 0.7 17.3 21.3
2002-07-09 04:26:54 51°26.345 2°48.847 59 0.7 16.5 21.1
2002-07-09 04:26:59 51°26.346 2°48.848 59.2 0.6 16.6 21
2002-07-09 04:27:05 51°26.347 2°48.849 59.3 0.7 16.2 20.9
2002-07-09 04:27:09 51°26.348 2°48.849 59.5 0.7 16.7 20.9
2002-07-09 04:27:14 51°26.349 2°48.849 59.7 0.6 16.8 20.9
2002-07-09 04:27:19 51°26.349 2°48.85 59.7 0.6 17.3 20.8
2002-07-09 04:27:23 51°26.35 2°48.85 60 0.6 17.3 20.6
2002-07-09 04:27:29 51°26.351 2°48.851 60.2 0.6 16.6 20.5
2002-07-09 04:27:34 51°26.352 2°48.851 60.5 0.7 18.4 20.3
2002-07-09 04:27:39 51°26.352 2°48.851 60.5 0.6 17.7 20.1
2002-07-09 04:27:44 51°26.353 2°48.852 60.8 0.6 16.9 19.9
2002-07-09 04:27:48 51°26.354 2°48.852 61.2 0.6 16.7 19.7
2002-07-09 04:27:54 51°26.355 2°48.853 61.3 0.6 18.6 19.6
2002-07-09 04:27:59 51°26.356 2°48.853 61.5 0.6 19 19.3
2002-07-09 04:28:03 51°26.356 2°48.853 62 0.6 16.4 19.2
2002-07-09 04:28:09 51°26.357 2°48.854 62.5 0.6 17 19
2002-07-09 04:28:14 51°26.357 2°48.854 62.7 0.6 18.6 18.8
2002-07-09 04:28:19 51°26.358 2°48.855 63 0.6 20.6 18.7
2002-07-09 04:28:24 51°26.359 2°48.855 63.2 0.6 19.1 18.6
2002-07-09 04:28:29 51°26.36 2°48.855 63.3 0.5 17.4 18.4
2002-07-09 04:28:34 51°26.36 2°48.856 63.7 0.5 17.9 18.3
2002-07-09 04:28:39 51°26.361 2°48.856 64 0.5 16.9 18.1
2002-07-09 04:28:44 51°26.362 2°48.856 64.5 0.5 16.8 18
2002-07-09 04:28:49 51°26.363 2°48.857 64.7 0.5 16.7 17.8
2002-07-09 04:28:54 51°26.363 2°48.857 64.8 0.5 18 17.7
2002-07-09 04:28:59 51°26.364 2°48.857 65.2 0.5 17.5 17.6
2002-07-09 04:29:03 51°26.364 2°48.858 65.7 0.5 16.9 17.6
2002-07-09 04:29:09 51°26.365 2°48.858 66 0.5 18.6 17.7
2002-07-09 04:29:14 51°26.366 2°48.858 66.3 0.5 18.7 17.8
2002-07-09 04:29:19 51°26.366 2°48.858 66.7 0.5 17.9 17.9
2002-07-09 04:29:25 51°26.367 2°48.859 67 0.5 17.3 17.9
2002-07-09 04:29:29 51°26.368 2°48.859 67.3 0.5 15.9 18
2002-07-09 04:29:34 51°26.368 2°48.859 67.5 0.5 14.1 18.2
2002-07-09 04:29:39 51°26.369 2°48.86 67.8 0.5 13.8 18.3
2002-07-09 04:29:44 51°26.37 2°48.86 67.8 0.4 16.1 18.5
2002-07-09 04:29:49 51°26.37 2°48.86 68 0.4 15.2 18.7
2002-07-09 04:29:55 51°26.371 2°48.86 68 0.4 16.3 19.1
2002-07-09 04:29:59 51°26.371 2°48.861 67.8 0.4 15 19.3
2002-07-09 04:30:04 51°26.372 2°48.861 67.3 0.4 18.5 19.6
2002-07-09 04:30:08 51°26.372 2°48.861 66.8 0.5 22.8 19.9
2002-07-09 04:30:14 51°26.373 2°48.862 66 0.5 24.4 20.1
2002-07-09 04:30:19 51°26.374 2°48.862 65.3 0.5 25.3 20.3
2002-07-09 04:30:23 51°26.374 2°48.863 65.2 0.5 26.7 20.5
2002-07-09 04:30:29 51°26.375 2°48.863 65.2 0.6 28.4 20.6
2002-07-09 04:30:34 51°26.376 2°48.864 65.8 0.6 29.3 20.8
2002-07-09 04:30:39 51°26.376 2°48.865 66.5 0.6 30.7 20.9
2002-07-09 04:30:44 51°26.377 2°48.866 67.7 0.6 32.2 21
2002-07-09 04:30:49 51°26.378 2°48.866 68.8 0.6 34.8 21
2002-07-09 04:30:54 51°26.379 2°48.867 70.2 0.6 37 21
2002-07-09 04:30:59 51°26.379 2°48.868 71.7 0.6 40.1 21.1
2002-07-09 04:31:04 51°26.38 2°48.869 73.2 0.6 41.1 21.1
2002-07-09 04:31:09 51°26.38 2°48.87 74.7 0.6 46.4 21
2002-07-09 04:31:14 51°26.381 2°48.871 76.5 0.6 49.3 20.9
2002-07-09 04:31:19 51°26.381 2°48.872 78 0.6 54 20.9
2002-07-09 04:31:23 51°26.382 2°48.873 80 0.6 55.4 20.9
2002-07-09 04:31:29 51°26.382 2°48.874 81.8 0.6 58.3 21.1
2002-07-09 04:31:34 51°26.382 2°48.875 83.5 0.6 61.5 21.1
2002-07-09 04:31:39 51°26.383 2°48.876 85.2 0.6 65.7 21.2
2002-07-09 04:31:45 51°26.383 2°48.878 86.8 0.6 66.7 21.2
2002-07-09 04:31:49 51°26.383 2°48.879 88.7 0.6 71.2 21.1
2002-07-09 04:31:54 51°26.383 2°48.88 90.3 0.6 73.5 21
2002-07-09 04:31:59 51°26.384 2°48.881 91.8 0.6 78.8 21
2002-07-09 04:32:04 51°26.384 2°48.882 93.8 0.6 83.2 21
2002-07-09 04:32:09 51°26.384 2°48.884 95.3 0.6 85.8 21.1
2002-07-09 04:32:15 51°26.384 2°48.885 97.2 0.6 87 21.1
2002-07-09 04:32:19 51°26.384 2°48.886 98.8 0.6 92 20.9
2002-07-09 04:32:24 51°26.384 2°48.888 100.5 0.6 94.5 20.8
2002-07-09 04:32:28 51°26.383 2°48.888 102 0.6 96.5 20.8
2002-07-09 04:32:34 51°26.383 2°48.89 104 0.6 100.7 20.7
2002-07-09 04:32:39 51°26.383 2°48.891 105.8 0.6 101.3 20.7
2002-07-09 04:32:43 51°26.383 2°48.892 107.5 0.6 108.6 20.7
2002-07-09 04:32:49 51°26.382 2°48.894 109 0.6 111.8 20.7
2002-07-09 04:32:54 51°26.382 2°48.895 110.8 0.6 114.8 20.7
2002-07-09 04:32:59 51°26.381 2°48.896 112.7 0.6 119.7 20.8
2002-07-09 04:33:04 51°26.381 2°48.897 114.3 0.6 121.8 21
2002-07-09 04:33:09 51°26.38 2°48.899 115.8 0.6 125.9 21
2002-07-09 04:33:14 51°26.38 2°48.9 117.7 0.7 126.3 20.9
2002-07-09 04:33:19 51°26.379 2°48.901 119.3 0.7 130.7 20.8
2002-07-09 04:33:24 51°26.378 2°48.902 121.2 0.7 134.3 20.8
2002-07-09 04:33:29 51°26.378 2°48.903 122.7 0.7 136.8 20.8
2002-07-09 04:33:34 51°26.377 2°48.904 124.7 0.7 140.7 20.7
2002-07-09 04:33:39 51°26.376 2°48.905 126.3 0.7 143.5 20.7
2002-07-09 04:33:43 51°26.375 2°48.906 128.2 0.7 146.8 20.7
2002-07-09 04:33:49 51°26.374 2°48.907 130 0.7 150.4 20.6
2002-07-09 04:33:54 51°26.372 2°48.908 131.8 0.8 152.2 20.6
2002-07-09 04:33:59 51°26.371 2°48.908 133.7 0.8 154.6 20.5
2002-07-09 04:34:05 51°26.37 2°48.909 135.5 0.8 156.6 20.4
2002-07-09 04:34:09 51°26.369 2°48.909 137.3 0.8 159.8 20.3
2002-07-09 04:34:14 51°26.368 2°48.909 139.5 0.8 162.6 20.3
2002-07-09 04:34:19 51°26.367 2°48.91 141.3 0.9 166.3 20.4
2002-07-09 04:34:23 51°26.366 2°48.91 143.3 0.9 169.9 20.4
2002-07-09 04:34:29 51°26.364 2°48.911 145.3 0.9 172.4 20.1
2002-07-09 04:34:34 51°26.363 2°48.911 147.5 1 173.5 19.9
2002-07-09 04:34:39 51°26.362 2°48.911 149.5 1 176 19.5
2002-07-09 04:34:44 51°26.36 2°48.911 151.7 1 178 18.8
2002-07-09 04:34:48 51°26.359 2°48.911 153.5 1 180.3 18
2002-07-09 04:34:54 51°26.357 2°48.911 156.2 1.1 181.9 17.8
2002-07-09 04:34:59 51°26.356 2°48.91 158.2 1.1 181.9 17.9
2002-07-09 04:35:03 51°26.354 2°48.91 160.3 1.1 184.7 18.4
2002-07-09 04:35:09 51°26.352 2°48.91 162.2 1.1 188.3 18.9
2002-07-09 04:35:14 51°26.351 2°48.909 164.5 1.2 190 19.3
2002-07-09 04:35:19 51°26.349 2°48.909 166.5 1.2 192 19.6
2002-07-09 04:35:24 51°26.348 2°48.908 168.5 1.2 193.8 20.1
2002-07-09 04:35:29 51°26.346 2°48.907 170.3 1.2 196.1 20.3
2002-07-09 04:35:34 51°26.344 2°48.906 172.7 1.2 197.4 20.8
2002-07-09 04:35:39 51°26.343 2°48.905 174.5 1.3 200.6 21.2
2002-07-09 04:35:43 51°26.341 2°48.904 176.7 1.3 202.8 21.5
2002-07-09 04:35:49 51°26.339 2°48.903 179 1.3 203.3 21.8
2002-07-09 04:35:55 51°26.337 2°48.901 181.2 1.3 204.3 21.8
2002-07-09 04:35:59 51°26.336 2°48.9 183 1.4 206.7 21.7
2002-07-09 04:36:04 51°26.334 2°48.899 185.3 1.4 207.3 21.9
2002-07-09 04:36:09 51°26.332 2°48.897 187.5 1.4 208.1 22.2
2002-07-09 04:36:14 51°26.331 2°48.895 189.7 1.4 210.1 22.6
2002-07-09 04:36:19 51°26.329 2°48.894 191.2 1.5 212.8 22.7
2002-07-09 04:36:23 51°26.328 2°48.892 192.5 1.5 214.9 22.7
2002-07-09 04:36:29 51°26.325 2°48.89 193.7 1.5 215.1 22.6
2002-07-09 04:36:34 51°26.324 2°48.888 194.8 1.5 214.9 22.8
2002-07-09 04:36:39 51°26.322 2°48.886 195.8 1.5 215.9 22.8
2002-07-09 04:36:44 51°26.32 2°48.884 196.7 1.5 216.3 22.9
2002-07-09 04:36:48 51°26.318 2°48.882 197.3 1.6 217.6 23
2002-07-09 04:36:54 51°26.316 2°48.88 198.2 1.6 218 23
2002-07-09 04:36:59 51°26.314 2°48.877 199.2 1.6 216.8 22.8
2002-07-09 04:37:03 51°26.313 2°48.875 199.7 1.6 217.8 22.5
2002-07-09 04:37:09 51°26.311 2°48.873 200.3 1.7 219.2 22.3
2002-07-09 04:37:14 51°26.309 2°48.87 201 1.7 219.1 21.8
2002-07-09 04:37:19 51°26.307 2°48.868 201.3 1.7 219.9 20.9
2002-07-09 04:37:24 51°26.306 2°48.865 202 1.7 220.5 19.6
2002-07-09 04:37:29 51°26.304 2°48.863 202.3 1.7 220.8 19.5
2002-07-09 04:37:35 51°26.302 2°48.86 202.8 1.8 221.1 20.1
2002-07-09 04:37:39 51°26.3 2°48.857 203.3 1.8 221 20.5
2002-07-09 04:37:44 51°26.298 2°48.855 203.7 1.7 219.6 21
2002-07-09 04:37:49 51°26.296 2°48.852 204 1.8 219.2 21
2002-07-09 04:37:54 51°26.295 2°48.849 204.3 1.8 220.9 21.5
2002-07-09 04:37:59 51°26.293 2°48.846 204.5 1.8 222.1 22.1
2002-07-09 04:38:04 51°26.291 2°48.844 205 1.9 222.7 21.9
2002-07-09 04:38:09 51°26.289 2°48.841 205.2 1.9 222.1 22.4
2002-07-09 04:38:13 51°26.287 2°48.839 205.3 1.9 221.8 22.8
2002-07-09 04:38:19 51°26.285 2°48.835 205.5 1.9 222.9 22.7
2002-07-09 04:38:24 51°26.283 2°48.832 205.5 1.9 223.2 22.6
2002-07-09 04:38:29 51°26.281 2°48.829 205.5 1.9 222.7 23.1
2002-07-09 04:38:34 51°26.279 2°48.826 205.5 1.9 223.7 22.9
2002-07-09 04:38:39 51°26.277 2°48.823 205.5 1.9 223.3 23.3
2002-07-09 04:38:43 51°26.276 2°48.821 205.7 1.9 223.4 23.1
2002-07-09 04:38:49 51°26.273 2°48.817 205.8 2 222.6 23.3
2002-07-09 04:38:54 51°26.271 2°48.814 206.2 2 222.8 23
2002-07-09 04:38:59 51°26.269 2°48.811 206.2 2 221.9 23.2
2002-07-09 04:39:04 51°26.267 2°48.808 206.2 2 222.3 22.9
2002-07-09 04:39:09 51°26.265 2°48.805 206.3 2 222.1 22.6
2002-07-09 04:39:14 51°26.263 2°48.802 206.8 2 222.9 21.9
2002-07-09 04:39:19 51°26.261 2°48.799 207 2 223.5 21
2002-07-09 04:39:24 51°26.259 2°48.796 207.2 2 223.8 19.6
2002-07-09 04:39:29 51°26.257 2°48.793 207.3 2.1 223.6 19.5
2002-07-09 04:39:33 51°26.255 2°48.79 207.8 2.1 224 19.9
2002-07-09 04:39:39 51°26.253 2°48.786 208.2 2.1 224.3 20.3
2002-07-09 04:39:44 51°26.251 2°48.783 208.5 2.1 224.3 20.9
2002-07-09 04:39:48 51°26.249 2°48.781 208.8 2.1 223.5 21.3
2002-07-09 04:39:54 51°26.247 2°48.777 209.2 2.1 223.4 21.7
2002-07-09 04:39:59 51°26.244 2°48.773 209.5 2.1 224.5 22.1
2002-07-09 04:40:03 51°26.243 2°48.771 209.7 2.1 224.7 22.4
2002-07-09 04:40:09 51°26.24 2°48.767 209.5 2.1 223.8 22.6
2002-07-09 04:40:15 51°26.237 2°48.762 209.5 2.1 223.7 22.6
2002-07-09 04:40:19 51°26.236 2°48.76 209.5 2.1 224.2 22.7
2002-07-09 04:40:24 51°26.233 2°48.757 209.3 2.1 223.6 23.2
2002-07-09 04:40:28 51°26.231 2°48.754 209.3 2.2 223.4 23
2002-07-09 04:40:34 51°26.229 2°48.75 209.2 2.2 223 23.2
2002-07-09 04:40:39 51°26.226 2°48.747 209 2.2 223 23.3
2002-07-09 04:40:43 51°26.225 2°48.744 209 2.2 223.9 23.2
2002-07-09 04:40:49 51°26.222 2°48.74 208.7 2.2 223.3 23.1
2002-07-09 04:40:54 51°26.22 2°48.737 208.7 2.2 223 22.9
2002-07-09 04:40:59 51°26.218 2°48.734 208.5 2.1 223.2 22.4
2002-07-09 04:41:04 51°26.217 2°48.73 208 2.1 223.2 21.1
2002-07-09 04:41:09 51°26.214 2°48.727 208 2.1 222.9 20.4
2002-07-09 04:41:14 51°26.212 2°48.724 207.7 2.1 223.7 20.7
2002-07-09 04:41:19 51°26.21 2°48.721 207.5 2.1 223.6 21.4
2002-07-09 04:41:24 51°26.208 2°48.718 207.3 2 223.1 22
2002-07-09 04:41:29 51°26.206 2°48.714 207.2 2 224.4 21.8
2002-07-09 04:41:34 51°26.205 2°48.711 207 2 224 22.4
2002-07-09 04:41:39 51°26.202 2°48.708 206.8 2 224.1 22.6
2002-07-09 04:41:43 51°26.201 2°48.706 206.5 2 224.6 22.6
2002-07-09 04:41:49 51°26.198 2°48.702 206.5 1.9 224.1 22.7
2002-07-09 04:41:55 51°26.196 2°48.699 206.3 1.9 225.1 23
2002-07-09 04:41:59 51°26.194 2°48.697 206 1.9 223.4 23.2
2002-07-09 04:42:05 51°26.192 2°48.693 206 1.9 223.2 22.9
2002-07-09 04:42:09 51°26.191 2°48.691 205.8 1.9 223.8 23.2
2002-07-09 04:42:14 51°26.189 2°48.688 205.8 1.9 223.8 23.2
2002-07-09 04:42:20 51°26.187 2°48.684 205.7 1.8 225 23.3
2002-07-09 04:42:23 51°26.186 2°48.683 205.7 1.8 225.1 23.3
2002-07-09 04:42:29 51°26.184 2°48.679 205.5 1.8 226.2 23.4
2002-07-09 04:42:34 51°26.182 2°48.676 205.3 1.8 226.5 23.1
2002-07-09 04:42:39 51°26.181 2°48.673 205.3 1.8 227 22.9